Tiempo atmosférico en la estación meteorológica de Morón De La Frontera, Sevilla (87 m.)



Fecha
DESCASC
Temp. máxima en grados centígrados (hora)
DESCASC
Temp. mínima en grados centígrados (hora)
DESCASC
Temp. media en grados centígrados
DESCASC
Racha de viento máxima en m/sg (hora)
DESCASC
Velocidad máxima media en intervalos de 10 minutos(hora)
DESCASC
Precipitaciones diarias en mm
DESCASC
Precipitaciones de 00:00 a 06:00 en mm
DESCASC
Precipitaciones de 06:00 a 12:00 en mm
DESCASC
Precipitaciones de 12:00 a 18:00 en mm
DESCASC
Precipitaciones de 18:00 a 24:00 en mm
DESCASC
17-03-2019 24.2 (16:40) 5.1 (07:40) 14.7 6.11 (16:00) 3.33 (16:00) 0 0 0 0 0
16-03-2019 26.4 (15:50) 4.9 (07:40) 15.6 6.94 (16:50) 3.89 (16:30) 0 0 0 0 0
15-03-2019 26.7 (17:30) 3.4 (06:30) 15.1 4.72 (22:40) 2.5 (18:30) 0 0 0 0 0
14-03-2019 22.2 (15:30) 8.1 (00:00) 15.2 8.06 (14:20) 4.72 (09:30) 0 0 0 0 0
13-03-2019 20.7 (17:30) 6.6 (07:00) 13.7 6.11 (12:30) 3.61 (12:50) 0 0 0 0 0
12-03-2019 25.3 (16:40) 7 (00:00) 16.1 5.83 (20:00) 3.61 (22:50) 0 0 0 0 0
11-03-2019 25.9 (16:30) 6.6 (00:00) 16.2 4.72 (11:50) 3.06 (11:40) 0 0 0 0 0
10-03-2019 24.1 (16:50) 5.9 (00:00) 15 5 (12:50) 3.06 (12:40) 0 0 0 0 0
09-03-2019 21.9 (15:50) 5.8 (00:00) 13.8 6.39 (16:00) 4.17 (16:00) 0 0 0 0 0
08-03-2019 18.6 (15:40) 8.1 (00:00) 13.4 5.28 (23:30) 2.78 (17:20) 0.1 0.1 0 0 0
07-03-2019 17.3 (16:00) 4 (00:00) 10.6 7.22 (18:20) 4.17 (18:20) 0 0 0 0 0
06-03-2019 17.4 (10:50) 9.4 (00:00) 13.4 16.11 (13:00) 10.28 (13:00) 18.1 0 3 15.1 0
05-03-2019 18.4 (17:30) 12.8 (00:00) 15.6 6.67 (02:50) 3.89 (04:40) 4.5 4 0.4 0.1 0
04-03-2019 19.8 (15:50) 7.3 (00:00) 13.5 8.33 (13:30) 4.17 (19:10) 0 0 0 0 0
03-03-2019 25.2 (16:30) 4.8 (00:00) 15 6.94 (20:10) 4.17 (20:10) 0 0 0 0 0
02-03-2019 21 (17:30) 5.9 (00:00) 13.5 3.61 (15:30) 2.5 (00:40) 0 0 0 0 0
01-03-2019 20.3 (16:20) 4.5 (00:00) 12.4 6.94 (14:00) 3.33 (13:50) 0 0 0 0 0
28-02-2019 22.7 (16:10) 3.3 (00:00) 13 4.72 (12:30) 3.06 (12:20) 0 0 0 0 0
27-02-2019 22.9 (16:00) 2.5 (00:00) 12.7 4.44 (18:00) 3.06 (18:20) 0 0 0 0 0
26-02-2019 24.2 (17:20) 1.2 (00:00) 12.7 6.11 (23:00) 4.17 (23:00) 0 0 0 0 0
25-02-2019 23.3 (16:00) 5.9 (00:00) 14.6 6.67 (12:30) 4.17 (09:00) 0 0 0 0 0
24-02-2019 22.9 (17:10) 2.5 (00:00) 12.7 8.33 (22:00) 5 (22:00) 0 0 0 0 0
23-02-2019 22.1 (16:10) 5 (00:00) 13.6 5.83 (16:10) 3.61 (13:40) 0 0 0 0 0
22-02-2019 22.8 (16:20) 3.4 (00:00) 13.1 2.78 (16:30) 2.22 (23:59) 0 0 0 0 0
21-02-2019 21.2 (16:00) 3.2 (07:40) 12.2 4.72 (15:30) 2.5 (15:30) 0 0 0 0 0
20-02-2019 20.3 (16:10) 5.2 (08:40) 12.7 4.17 (12:40) 2.5 (12:40) 0 0 0 0 0

Gráficas

Temp. máximas Temp. mínimas Temp. medias Precipitaciones Rachas de viento máximas Velocidades máximas media en intervalos de 10 minutos

Datos horarios

Fecha y hora oficial Temperatura (ºC) Velocidad del viento (km/h) Dirección del viento Racha (km/h) Dirección de racha Precipitación (mm) Presión (hPa) Tendencia (hPa) Humedad (%)
2019-03-21 23:00:00 11.8 15 Sur 24 Sur 0 -- -- 54
2019-03-21 22:00:00 10.6 7 Sur 14 Sur 0 -- -- 54
2019-03-21 21:00:00 11.3 7 Sudeste 12 Sur 0 -- -- 51
2019-03-21 20:00:00 12.8 8 Sur 17 Sur 0 -- -- 44
2019-03-21 19:00:00 16.1 11 Sur 20 Sur 0 -- -- 36
2019-03-21 18:00:00 18.7 4 Sur 17 Sudeste 0 -- -- 30
2019-03-21 17:00:00 18.8 9 Sur 26 Sur 0 -- -- 31
2019-03-21 16:00:00 18.7 9 Este 26 Sudeste 0 -- -- 28
2019-03-21 15:00:00 18 14 Este 28 Sudeste 0 -- -- 31
2019-03-21 14:00:00 17.7 12 Este 25 Este 0 -- -- 33
2019-03-21 13:00:00 17.2 12 Este 31 Este 0 -- -- 35
2019-03-21 12:00:00 16.5 11 Sudeste 24 Sudeste 0 -- -- 41
2019-03-21 11:00:00 14.9 13 Este 26 Este 0 -- -- 50
2019-03-21 10:00:00 13.6 13 Este 21 Este 0 -- -- 58
2019-03-21 09:00:00 10.7 11 Este 15 Este 0 -- -- 73
2019-03-21 08:00:00 7.7 10 Este 16 Este 0 -- -- 83
2019-03-21 07:00:00 6.6 9 Este 14 Este 0 -- -- 86
2019-03-21 06:00:00 7.1 9 Este 14 Este 0 -- -- 83
2019-03-21 05:00:00 7.3 5 Nordeste 9 Este 0 -- -- 78
2019-03-21 04:00:00 7.4 5 Nordeste 9 Nordeste 0 -- -- 75
2019-03-21 03:00:00 8 5 Norte 11 Nordeste 0 -- -- 69
2019-03-21 02:00:00 8.3 5 Norte 12 Norte 0 -- -- 64
2019-03-21 01:00:00 11.8 10 Sudeste 22 Sur 0 -- -- 58
2019-03-21 00:00:00 12.1 13 Sur 22 Sur 0 -- -- 55
2019-03-20 23:00:00 11.6 10 Sur 21 Sur 0 -- -- 54
2019-03-20 22:00:00 12.5 14 Sur 22 Sur 0 -- -- 51
2019-03-20 21:00:00 13.3 12 Sudeste 19 Sudeste 0 -- -- 47
2019-03-20 20:00:00 15.1 10 Sudeste 18 Sudeste 0 -- -- 41
2019-03-20 19:00:00 16.6 9 Sudeste 18 Este 0 -- -- 39
2019-03-20 18:00:00 18.5 10 Este 19 Este 0 -- -- 33
2019-03-20 17:00:00 19.2 9 Este 20 Sur 0 -- -- 34
2019-03-20 16:00:00 19.6 6 Sur 23 Sudeste 0 -- -- 36
2019-03-20 15:00:00 17.7 15 Sur 23 Sudeste 0 -- -- 39
2019-03-20 14:00:00 19.4 7 Norte 17 Nordeste 0 -- -- 38
2019-03-20 13:00:00 18.1 9 Nordeste 17 Este 0 -- -- 45
2019-03-20 12:00:00 17.1 5 Este 16 Este 0 -- -- 46
2019-03-20 11:00:00 15.9 10 Este 18 Este 0 -- -- 53
2019-03-20 10:00:00 14.4 11 Este 17 Este 0 -- -- 63
2019-03-20 09:00:00 10.5 8 Este 12 Este 0 -- -- 79
2019-03-20 08:00:00 6.8 8 Este 11 Este 0 -- -- 87
2019-03-20 07:00:00 6.2 7 Este 13 Este 0 -- -- 83
2019-03-20 06:00:00 6.4 8 Este 12 Nordeste 0 -- -- 79
2019-03-20 05:00:00 7.1 12 Nordeste 20 Nordeste 0 -- -- 73
2019-03-20 04:00:00 7.4 5 Nordeste 8 Nordeste 0 -- -- 68
2019-03-20 03:00:00 8.1 5 Nordeste 7 Este 0 -- -- 61
2019-03-20 02:00:00 7.2 7 Sur 15 Este 0 -- -- 57
2019-03-20 01:00:00 8.6 11 Este 14 Este 0 -- -- 51
2019-03-20 00:00:00 10.4 9 Este 13 Este 0 -- -- 45
2019-03-19 23:00:00 12.2 8 Este 16 Sudeste 0 -- -- 39
2019-03-19 22:00:00 14.5 8 Este 14 Sudeste 0 -- -- 36
2019-03-19 21:00:00 14.6 8 Este 14 Este 0 -- -- 36
2019-03-19 20:00:00 15.7 9 Este 21 Este 0 -- -- 34
2019-03-19 19:00:00 18.3 14 Este 28 Nordeste 0 -- -- 31
2019-03-19 18:00:00 19.9 13 Este 30 Este 0 -- -- 28
2019-03-19 17:00:00 20 17 Nordeste 31 Nordeste 0 -- -- 28
2019-03-19 16:00:00 20.3 16 Este 35 Nordeste 0 -- -- 28
2019-03-19 15:00:00 20 17 Este 32 Este 0 -- -- 28
2019-03-19 14:00:00 19.5 17 Este 29 Este 0 -- -- 28
2019-03-19 13:00:00 18.3 19 Este 33 Nordeste 0 -- -- 34
2019-03-19 12:00:00 17.5 17 Este 33 Nordeste 0 -- -- 46
2019-03-19 11:00:00 16.8 9 Este 17 Este 0 -- -- 61
2019-03-19 10:00:00 14.7 4 Nordeste 9 Este 0 -- -- 75
2019-03-19 09:00:00 11.3 4 Este 8 Este 0 -- -- 87
2019-03-19 08:00:00 7.8 2 Este 6 Sudeste 0 -- -- 91
2019-03-19 07:00:00 7.2 4 Sudeste 7 Sudeste 0 -- -- 91
2019-03-19 06:00:00 7.4 6 Sudeste 8 Sur 0 -- -- 91
2019-03-19 05:00:00 7.4 4 Sur 8 Sur 0 -- -- 90
2019-03-19 04:00:00 8.7 5 Sudeste 7 Sudeste 0 -- -- 90
2019-03-19 03:00:00 8.7 6 Sur 7 Sur 0 -- -- 89
2019-03-19 02:00:00 9.3 7 Sur 9 Sur 0 -- -- 88
2019-03-19 01:00:00 9.9 6 Sur 15 Oeste 0 -- -- 86
2019-03-19 00:00:00 12.7 9 Oeste 16 Oeste 0 -- -- 78
2019-03-18 23:00:00 13.4 10 Oeste 16 Oeste 0 -- -- 76
2019-03-18 22:00:00 14.2 8 Sudoeste 24 Sudoeste 0 -- -- 66
2019-03-18 21:00:00 15.8 13 Sudoeste 24 Sudoeste 0 -- -- 56
2019-03-18 20:00:00 17.4 11 Sudoeste 18 Sudoeste 0 -- -- 49
2019-03-18 19:00:00 21.1 0 Calma 8 Oeste 0 -- -- 35
2019-03-18 18:00:00 21.6 5 Oeste 18 Noroeste 0 -- -- 34
2019-03-18 17:00:00 22.1 3 Noroeste 12 Norte 0 -- -- 35
2019-03-18 16:00:00 22.1 4 Noroeste 15 Nordeste 0 -- -- 36
2019-03-18 15:00:00 21.1 0 Calma 19 Nordeste 0 -- -- 38
2019-03-18 14:00:00 20.3 6 Nordeste 17 Norte 0 -- -- 42
2019-03-18 13:00:00 19.2 4 Nordeste 21 Este 0 -- -- 46
2019-03-18 12:00:00 18 6 Este 12 Este 0 -- -- 53
2019-03-18 11:00:00 17 7 Este 14 Este 0 -- -- 58
2019-03-18 10:00:00 14.7 5 Este 9 Este 0 -- -- 66
2019-03-18 09:00:00 12.4 0 Calma 8 Sur 0 -- -- 79
2019-03-18 08:00:00 7.8 5 Sur 9 Sudeste 0 -- -- 88
2019-03-18 07:00:00 6.6 5 Sur 7 Sur 0 -- -- 88
2019-03-18 06:00:00 6.4 5 Sur 7 Sur 0 -- -- 86
2019-03-18 05:00:00 6.6 4 Sudoeste 9 Sur 0 -- -- 84
2019-03-18 04:00:00 7.5 5 Sur 7 Sur 0 -- -- 83
2019-03-18 03:00:00 6.9 6 Sur 8 Sudeste 0 -- -- 83
2019-03-18 02:00:00 8.2 4 Sur 6 Sudoeste 0 -- -- 79
2019-03-18 01:00:00 8 5 Sur 6 Sudoeste 0 -- -- 76
2019-03-18 00:00:00 9 3 Sudoeste 6 Sudoeste 0 -- -- 70
2019-03-17 23:00:00 9.7 4 Sur 8 Sur 0 -- -- 68
2019-03-17 22:00:00 11.4 5 Sur 10 Norte 0 -- -- 56
2019-03-17 21:00:00 16.4 7 Norte 13 Norte 0 -- -- 39
2019-03-17 20:00:00 18.5 6 Noroeste 13 Noroeste 0 -- -- 35
2019-03-17 19:00:00 20.9 0 Calma 17 Sudoeste 0 -- -- 28
2019-03-17 18:00:00 23 6 Oeste 20 Oeste 0 -- -- 29
2019-03-17 17:00:00 22.7 12 Oeste 19 Oeste 0 -- -- 29
2019-03-17 16:00:00 23 12 Oeste 22 Oeste 0 -- -- 29
2019-03-17 15:00:00 22.2 8 Sudoeste 15 Sudoeste 0 -- -- 34
2019-03-17 14:00:00 21.7 5 Oeste 12 Oeste 0 -- -- 41
2019-03-17 13:00:00 19.2 3 Oeste 8 Sudeste 0 -- -- 56
2019-03-17 12:00:00 13.6 3 Sudoeste 7 Sudoeste 0 -- -- 93
2019-03-17 11:00:00 10.4 2 Norte 9 Nordeste 0 -- -- 94
2019-03-17 10:00:00 8.7 3 Nordeste 9 Nordeste 0 -- -- 94
2019-03-17 09:00:00 7.1 5 Nordeste 7 Nordeste 0 -- -- 94
2019-03-17 08:00:00 5.5 0 Calma 4 Noroeste 0 -- -- 93
2019-03-17 07:00:00 5.6 0 Calma 6 Oeste 0 -- -- 94
2019-03-17 06:00:00 6.1 2 Sur 5 Este 0 -- -- 94
2019-03-17 05:00:00 7.8 0 Calma 5 Sudeste 0 -- -- 94
2019-03-17 04:00:00 9.5 5 Sur 12 Sur 0 -- -- 94
2019-03-17 03:00:00 10.5 7 Sur 10 Sur 0 -- -- 93
2019-03-17 02:00:00 9.4 3 Sudoeste 7 Sur 0 -- -- 92
2019-03-17 01:00:00 7.3 0 Calma 6 Sur 0 -- -- 87
2019-03-17 00:00:00 8.3 3 Sur 7 Sur 0 -- -- 84
2019-03-16 23:00:00 9.7 4 Sur 8 Sudoeste 0 -- -- 83
2019-03-16 22:00:00 12.8 5 Sudoeste 9 Sur 0 -- -- 77
2019-03-16 21:00:00 14.4 0 Calma 7 Noroeste 0 -- -- 63
2019-03-16 20:00:00 17.6 2 Oeste 12 Noroeste 0 -- -- 53
2019-03-16 19:00:00 20.6 2 Oeste 17 Noroeste 0 -- -- 44
2019-03-16 18:00:00 23.7 7 Oeste 25 Oeste 0 -- -- 36
2019-03-16 17:00:00 25 14 Sudoeste 25 Sudoeste 0 -- -- 31
2019-03-16 16:00:00 26.1 5 Oeste 13 Noroeste 0 -- -- 31
2019-03-16 15:00:00 24.9 2 Este 9 Norte 0 -- -- 31
2019-03-16 14:00:00 23.7 3 Norte 9 Este 0 -- -- 33
2019-03-16 13:00:00 22.4 0 Calma 7 Norte 0 -- -- 34
2019-03-16 12:00:00 20.3 3 Norte 6 Sur 0 -- -- 38
2019-03-16 11:00:00 18.6 2 Sur 6 Sur 0 -- -- 47
2019-03-16 10:00:00 14.5 0 Calma 5 Este 0 -- -- 53
2019-03-16 09:00:00 10.2 0 Calma 8 Sudeste 0 -- -- 70
2019-03-16 08:00:00 6.1 3 Sudeste 8 Sur 0 -- -- 75
2019-03-16 07:00:00 5.4 4 Sudeste 6 Sudeste 0 -- -- 77
2019-03-16 06:00:00 6.7 4 Sur 8 Sudeste 0 -- -- 73
2019-03-16 05:00:00 6 5 Sur 8 Sudeste 0 -- -- 79
2019-03-16 04:00:00 7 6 Sur 10 Sur 0 -- -- 76
2019-03-16 03:00:00 7.8 8 Sur 12 Sur 0 -- -- 76
2019-03-16 02:00:00 8.5 8 Sur 10 Sur 0 -- -- 75
2019-03-16 01:00:00 8.6 6 Sur 10 Sur 0 -- -- 77
2019-03-16 00:00:00 9.8 6 Sur 10 Sur 0 -- -- 72
2019-03-15 23:00:00 12.3 8 Sudoeste 17 Sudoeste 0 -- -- 58
2019-03-15 22:00:00 13.7 8 Sudoeste 12 Nordeste 0 -- -- 51
2019-03-15 21:00:00 18.5 9 Nordeste 13 Nordeste 0 -- -- 35
2019-03-15 20:00:00 20.7 5 Nordeste 11 Nordeste 0 -- -- 32
2019-03-15 19:00:00 23.1 9 Nordeste 14 Nordeste 0 -- -- 30
2019-03-15 18:00:00 26.2 3 Norte 9 Norte 0 -- -- 26
2019-03-15 17:00:00 26.1 4 Norte 12 Norte 0 -- -- 26
2019-03-15 16:00:00 25.8 4 Noroeste 9 Norte 0 -- -- 27
2019-03-15 15:00:00 25.2 4 Nordeste 10 Nordeste 0 -- -- 28
2019-03-15 14:00:00 23.6 3 Nordeste 11 Nordeste 0 -- -- 35
2019-03-15 13:00:00 21.4 5 Este 13 Nordeste 0 -- -- 38
2019-03-15 12:00:00 19.4 5 Nordeste 12 Nordeste 0 -- -- 46
2019-03-15 11:00:00 16.8 6 Nordeste 10 Nordeste 0 -- -- 52
2019-03-15 10:00:00 13.5 3 Nordeste 12 Nordeste 0 -- -- 61
2019-03-15 09:00:00 8.9 6 Nordeste 10 Este 0 -- -- 72
2019-03-15 08:00:00 5.3 7 Este 10 Nordeste 0 -- -- 77
2019-03-15 07:00:00 4.5 4 Este 6 Este 0 -- -- 77
2019-03-15 06:00:00 4.5 5 Sudeste 7 Sudeste 0 -- -- 73
2019-03-15 05:00:00 5.8 3 Este 5 Este 0 -- -- 69
2019-03-15 04:00:00 5.9 0 Calma 11 Nordeste 0 -- -- 67
2019-03-15 03:00:00 7.4 6 Este 8 Este 0 -- -- 62
2019-03-15 02:00:00 9.7 3 Este 8 Este 0 -- -- 50
2019-03-15 01:00:00 9.7 5 Nordeste 12 Este 0 -- -- 50
2019-03-15 00:00:00 10.7 5 Nordeste 8 Nordeste 0 -- -- 48
2019-03-14 23:00:00 11.4 5 Nordeste 8 Este 0 -- -- 46
2019-03-14 22:00:00 12.7 4 Este 9 Sudeste 0 -- -- 43
2019-03-14 21:00:00 16.3 6 Este 13 Este 0 -- -- 35
2019-03-14 20:00:00 17 8 Nordeste 17 Nordeste 0 -- -- 34
2019-03-14 19:00:00 19.4 12 Nordeste 26 Nordeste 0 -- -- 34
2019-03-14 18:00:00 21.1 14 Nordeste 23 Nordeste 0 -- -- 35
2019-03-14 17:00:00 21.7 13 Nordeste 22 Nordeste 0 -- -- 35
2019-03-14 16:00:00 21.8 14 Nordeste 23 Nordeste 0 -- -- 37
2019-03-14 15:00:00 21.4 14 Nordeste 29 Nordeste 0 -- -- 39
2019-03-14 14:00:00 20.9 14 Nordeste 23 Nordeste 0 -- -- 42
2019-03-14 13:00:00 19.6 12 Este 27 Este 0 -- -- 44
2019-03-14 12:00:00 18.6 16 Este 25 Este 0 -- -- 44
2019-03-14 11:00:00 16.7 15 Este 23 Este 0 -- -- 47
2019-03-14 10:00:00 13.4 15 Este 27 Este 0 -- -- 49
2019-03-14 09:00:00 10.9 16 Este 26 Este 0 -- -- 53
2019-03-14 08:00:00 8.9 14 Este 22 Este 0 -- -- 58
2019-03-14 07:00:00 8.6 8 Este 16 Este 0 -- -- 59
2019-03-14 06:00:00 9.1 10 Este 20 Este 0 -- -- 58
2019-03-14 05:00:00 8.8 9 Este 14 Este 0 -- -- 63
2019-03-14 04:00:00 8.4 8 Este 12 Este 0 -- -- 66
2019-03-14 03:00:00 9 7 Este 14 Este 0 -- -- 68
2019-03-14 02:00:00 9.5 5 Nordeste 8 Nordeste 0 -- -- 71
2019-03-14 01:00:00 10.3 5 Nordeste 10 Nordeste 0 -- -- 70
2019-03-14 00:00:00 10.3 4 Este 6 Sudeste 0 -- -- 68
2019-03-13 23:00:00 9.5 5 Sur 8 Sur 0 -- -- 65
2019-03-13 22:00:00 12.6 0 Calma 11 Norte 0 -- -- 49
2019-03-13 21:00:00 16 7 Norte 13 Norte 0 -- -- 40
2019-03-13 20:00:00 17 5 Noroeste 13 Norte 0 -- -- 38
2019-03-13 19:00:00 19.4 7 Norte 19 Nordeste 0 -- -- 33
2019-03-13 18:00:00 20.4 9 Norte 19 Nordeste 0 -- -- 32
2019-03-13 17:00:00 20.3 9 Norte 21 Norte 0 -- -- 36
2019-03-13 16:00:00 20 10 Norte 20 Nordeste 0 -- -- 40
2019-03-13 15:00:00 19.6 12 Nordeste 20 Nordeste 0 -- -- 41
2019-03-13 14:00:00 18.4 11 Norte 22 Nordeste 0 -- -- 47
2019-03-13 13:00:00 18.2 10 Nordeste 22 Norte 0 -- -- 53
2019-03-13 12:00:00 16.7 9 Nordeste 17 Nordeste 0 -- -- 55
2019-03-13 11:00:00 15.5 4 Nordeste 17 Nordeste 0 -- -- 61
2019-03-13 10:00:00 13.7 8 Nordeste 18 Nordeste 0 -- -- 71
2019-03-13 09:00:00 10.2 0 Calma 4 Noroeste 0 -- -- 90
2019-03-13 08:00:00 6.8 0 Calma 6 Norte 0 -- -- 92
2019-03-13 07:00:00 6.9 0 Calma 6 Sudoeste 0 -- -- 91
2019-03-13 06:00:00 7.6 4 Sur 6 Sur 0 -- -- 91
2019-03-13 05:00:00 9.2 0 Calma 6 Sudoeste 0 -- -- 90
2019-03-13 04:00:00 10.8 5 Oeste 10 Sudoeste 0 -- -- 90
2019-03-13 03:00:00 9.9 8 Sudoeste 11 Sudoeste 0 -- -- 88
2019-03-13 02:00:00 12 5 Sudoeste 15 Sudoeste 0 -- -- 83
2019-03-13 01:00:00 13 10 Sudoeste 14 Sudoeste 0 -- -- 80
2019-03-13 00:00:00 13.2 7 Sudoeste 15 Sudoeste 0 -- -- 81
2019-03-12 23:00:00 14.5 11 Sudoeste 18 Sudoeste 0 -- -- 77
2019-03-12 22:00:00 14.8 9 Sudoeste 17 Oeste 0 -- -- 70
2019-03-12 21:00:00 16.6 9 Oeste 19 Oeste 0 -- -- 60
2019-03-12 20:00:00 18.9 10 Oeste 21 Oeste 0 -- -- 51
2019-03-12 19:00:00 21.5 8 Oeste 14 Oeste 0 -- -- 45
2019-03-12 18:00:00 23.6 3 Oeste 16 Oeste 0 -- -- 40
2019-03-12 17:00:00 24.7 5 Noroeste 17 Sudoeste 0 -- -- 39
2019-03-12 16:00:00 24 7 Oeste 17 Oeste 0 -- -- 39
2019-03-12 15:00:00 24.3 4 Noroeste 16 Oeste 0 -- -- 40
2019-03-12 14:00:00 23.2 4 Oeste 10 Oeste 0 -- -- 41
2019-03-12 13:00:00 21.4 4 Nordeste 10 Noroeste 0 -- -- 48
2019-03-12 12:00:00 20.1 4 Norte 9 Nordeste 0 -- -- 50
2019-03-12 11:00:00 18.5 4 Nordeste 9 Nordeste 0 -- -- 56
2019-03-12 10:00:00 16.8 0 Calma 4 Sur 0 -- -- 65
2019-03-12 09:00:00 12.8 2 Sur 6 Este 0 -- -- 80
2019-03-12 08:00:00 8.5 5 Sudeste 9 Este 0 -- -- 89
2019-03-12 07:00:00 7.3 6 Sudeste 9 Sur 0 -- -- 89
2019-03-12 06:00:00 8.5 2 Este 7 Nordeste 0 -- -- 85
2019-03-12 05:00:00 9.8 4 Nordeste 7 Sudeste 0 -- -- 85
2019-03-12 04:00:00 10.1 7 Sudeste 8 Sudeste 0 -- -- 83
2019-03-12 03:00:00 10.8 5 Sur 8 Sudeste 0 -- -- 82
2019-03-12 02:00:00 11.4 4 Sur 12 Sudoeste 0 -- -- 80
2019-03-12 01:00:00 12.2 8 Sudoeste 12 Sudoeste 0 -- -- 79
2019-03-12 00:00:00 12.3 7 Sur 13 Sur 0 -- -- 78
2019-03-11 23:00:00 12.6 10 Sur 12 Sur 0 -- -- 77
2019-03-11 22:00:00 14.8 4 Sudoeste 12 Sur 0 -- -- 66
2019-03-11 21:00:00 16.7 5 Sur 7 Sur 0 -- -- 56
2019-03-11 20:00:00 19.7 4 Sudoeste 6 Sudoeste 0 -- -- 50
2019-03-11 19:00:00 24.2 3 Nordeste 9 Nordeste 0 -- -- 35
2019-03-11 18:00:00 25.4 5 Nordeste 13 Nordeste 0 -- -- 33
2019-03-11 17:00:00 25.7 8 Norte 13 Nordeste 0 -- -- 32
2019-03-11 16:00:00 25.5 6 Nordeste 14 Nordeste 0 -- -- 35
2019-03-11 15:00:00 25 9 Nordeste 16 Nordeste 0 -- -- 35
2019-03-11 14:00:00 24.3 6 Nordeste 13 Este 0 -- -- 40
2019-03-11 13:00:00 22.7 8 Nordeste 15 Nordeste 0 -- -- 46
2019-03-11 12:00:00 21.3 9 Nordeste 17 Nordeste 0 -- -- 50
2019-03-11 11:00:00 19.5 11 Este 16 Este 0 -- -- 52
2019-03-11 10:00:00 16.9 6 Este 10 Nordeste 0 -- -- 70
2019-03-11 09:00:00 11.4 3 Nordeste 7 Nordeste 0 -- -- 79
2019-03-11 08:00:00 7.9 2 Nordeste 7 Sudeste 0 -- -- 83
2019-03-11 07:00:00 7.9 4 Sudeste 6 Sudeste 0 -- -- 84
2019-03-11 06:00:00 8.6 4 Este 6 Este 0 -- -- 82
2019-03-11 05:00:00 8.4 0 Calma 7 Sudeste 0 -- -- 82
2019-03-11 04:00:00 9.1 6 Sudeste 9 Sudeste 0 -- -- 80
2019-03-11 03:00:00 9.6 5 Sudeste 7 Sudeste 0 -- -- 79
2019-03-11 02:00:00 9 7 Sur 9 Sur 0 -- -- 82
2019-03-11 01:00:00 9.6 9 Sur 12 Sur 0 -- -- 80
2019-03-11 00:00:00 10.5 5 Sur 9 Sudeste 0 -- -- 76
2019-03-10 23:00:00 11.4 7 Sur 10 Sur 0 -- -- 70
2019-03-10 22:00:00 13 6 Sur 8 Sudeste 0 -- -- 64
2019-03-10 21:00:00 14.7 3 Sur 5 Sur 0 -- -- 59
2019-03-10 20:00:00 19.4 0 Calma 6 Nordeste 0 -- -- 37
2019-03-10 19:00:00 22.5 3 Nordeste 10 Nordeste 0 -- -- 32
2019-03-10 18:00:00 23.3 7 Nordeste 13 Nordeste 0 -- -- 31
2019-03-10 17:00:00 23.9 7 Nordeste 14 Nordeste 0 -- -- 29
2019-03-10 16:00:00 23.9 7 Norte 14 Nordeste 0 -- -- 30
2019-03-10 15:00:00 23.2 6 Nordeste 15 Nordeste 0 -- -- 32
2019-03-10 14:00:00 22.3 8 Nordeste 17 Nordeste 0 -- -- 33
2019-03-10 13:00:00 20.9 9 Este 18 Nordeste 0 -- -- 35
2019-03-10 12:00:00 19.2 10 Nordeste 15 Nordeste 0 -- -- 43
2019-03-10 11:00:00 17.1 6 Nordeste 12 Este 0 -- -- 49
2019-03-10 10:00:00 13 4 Sudeste 8 Este 0 -- -- 68
2019-03-10 09:00:00 8.9 0 Calma 8 Nordeste 0 -- -- 84
2019-03-10 08:00:00 6.2 4 Nordeste 8 Sur 0 -- -- 86
2019-03-10 07:00:00 6.4 3 Sudeste 10 Sudeste 0 -- -- 86
2019-03-10 06:00:00 6.6 0 Calma 5 Este 0 -- -- 84
2019-03-10 05:00:00 7.2 3 Este 8 Sudeste 0 -- -- 84
2019-03-10 04:00:00 7 6 Sudeste 8 Sur 0 -- -- 85
2019-03-10 03:00:00 7.1 7 Sudeste 9 Sudeste 0 -- -- 86
2019-03-10 02:00:00 7 6 Sudeste 10 Sur 0 -- -- 83
2019-03-10 01:00:00 9.2 3 Sur 6 Sudoeste 0 -- -- 78
2019-03-10 00:00:00 10.3 3 Oeste 7 Oeste 0 -- -- 71
2019-03-09 23:00:00 10.2 4 Sur 6 Sur 0 -- -- 68
2019-03-09 22:00:00 11.5 0 Calma 9 Sur 0 -- -- 68
2019-03-09 21:00:00 12.7 8 Sur 9 Sur 0 -- -- 58
2019-03-09 20:00:00 17.5 3 Nordeste 12 Nordeste 0 -- -- 39
2019-03-09 19:00:00 18.9 10 Nordeste 18 Nordeste 0 -- -- 36
2019-03-09 18:00:00 20.8 13 Nordeste 22 Nordeste 0 -- -- 32
2019-03-09 17:00:00 21.5 13 Nordeste 21 Nordeste 0 -- -- 32
2019-03-09 16:00:00 21.3 15 Nordeste 23 Nordeste 0 -- -- 32
2019-03-09 15:00:00 21.2 13 Nordeste 22 Este 0 -- -- 33
2019-03-09 14:00:00 20.9 9 Nordeste 16 Este 0 -- -- 37
2019-03-09 13:00:00 18.8 8 Nordeste 15 Este 0 -- -- 45
2019-03-09 12:00:00 17 7 Este 15 Este 0 -- -- 53
2019-03-09 11:00:00 15.6 9 Nordeste 15 Sudeste 0 -- -- 58
2019-03-09 10:00:00 12.1 7 Nordeste 10 Nordeste 0 -- -- 78
2019-03-09 09:00:00 8.2 4 Norte 7 Noroeste 0 -- -- 88
2019-03-09 08:00:00 6.7 3 Nordeste 8 Este 0 -- -- 89
2019-03-09 07:00:00 6.9 6 Este 8 Este 0 -- -- 89
2019-03-09 06:00:00 7 6 Este 9 Este 0 -- -- 89
2019-03-09 05:00:00 7.2 3 Este 5 Este 0 -- -- 88
2019-03-09 04:00:00 7.3 4 Sudeste 6 Este 0 -- -- 87
2019-03-09 03:00:00 7.7 3 Sudeste 5 Sudeste 0 -- -- 87
2019-03-09 02:00:00 7.7 4 Sudeste 8 Sur 0 -- -- 87
2019-03-09 01:00:00 7.9 6 Sur 9 Sur 0 -- -- 85
2019-03-09 00:00:00 8.5 6 Sur 19 Norte 0 -- -- 82
2019-03-08 23:00:00 9 6 Sur 8 Sur 0 -- -- 82
2019-03-08 22:00:00 10.1 5 Sur 6 Sur 0 -- -- 74
2019-03-08 21:00:00 14 2 Norte 9 Nordeste 0 -- -- 59
2019-03-08 20:00:00 15 5 Nordeste 7 Nordeste 0 -- -- 55
2019-03-08 19:00:00 16.7 3 Norte 11 Nordeste 0 -- -- 49
2019-03-08 18:00:00 17.8 6 Nordeste 14 Nordeste 0 -- -- 47
2019-03-08 17:00:00 18.2 6 Este 14 Este 0 -- -- 47
2019-03-08 16:00:00 16.9 8 Este 13 Nordeste 0 -- -- 51
2019-03-08 15:00:00 17.1 3 Norte 10 Norte 0 -- -- 55
2019-03-08 14:00:00 16.4 3 Noroeste 7 Noroeste 0 -- -- 65
2019-03-08 13:00:00 14.8 3 Sudoeste 9 Sudoeste 0 -- -- 69
2019-03-08 12:00:00 13.5 4 Sudoeste 7 Sudoeste 0 -- -- 82
2019-03-08 11:00:00 13 2 Sudoeste 5 Sudoeste 0 -- -- 80
2019-03-08 10:00:00 12.2 5 Nordeste 8 Nordeste 0 -- -- 84
2019-03-08 09:00:00 10.7 3 Este 5 Este 0 -- -- 88
2019-03-08 08:00:00 10.2 3 Este 7 Este 0 -- -- 89
2019-03-08 07:00:00 10.1 3 Este 5 Este 0 -- -- 89
2019-03-08 06:00:00 10 3 Sudeste 5 Sur 0.1 -- -- 89
2019-03-08 05:00:00 10.1 3 Sudoeste 7 Sur 0 -- -- 90
2019-03-08 04:00:00 9.3 5 Sur 8 Sur 0 -- -- 89
2019-03-08 03:00:00 8.9 5 Sur 10 Sudoeste 0 -- -- 88
2019-03-08 02:00:00 8.2 4 Sudoeste 8 Sur 0 -- -- 87
2019-03-08 01:00:00 8.6 7 Sudoeste 12 Sudoeste 0 -- -- 87
2019-03-08 00:00:00 9.9 9 Sudoeste 12 Sur 0 -- -- 88
2019-03-07 23:00:00 8.3 9 Sudoeste 11 Sur 0 -- -- 87
2019-03-07 22:00:00 8.1 6 Sur 10 Sur 0 -- -- 83
2019-03-07 21:00:00 10.9 6 Sudoeste 14 Oeste 0 -- -- 74
2019-03-07 20:00:00 11.9 7 Oeste 18 Oeste 0 -- -- 67
2019-03-07 19:00:00 14.1 7 Oeste 26 Oeste 0 -- -- 51
2019-03-07 18:00:00 15.6 5 Oeste 18 Oeste 0 -- -- 48
2019-03-07 17:00:00 16.4 6 Oeste 14 Oeste 0 -- -- 44
2019-03-07 16:00:00 16.5 9 Oeste 21 Oeste 0 -- -- 41
2019-03-07 15:00:00 16.6 5 Oeste 20 Sudoeste 0 -- -- 44
2019-03-07 14:00:00 16 5 Sudoeste 15 Oeste 0 -- -- 48
2019-03-07 13:00:00 14.9 0 Calma 9 Sur 0 -- -- 54
2019-03-07 12:00:00 13.7 2 Nordeste 11 Norte 0 -- -- 60
2019-03-07 11:00:00 12.2 4 Norte 8 Norte 0 -- -- 66
2019-03-07 10:00:00 10.3 3 Oeste 6 Sudoeste 0 -- -- 88
2019-03-07 09:00:00 6.9 4 Sudeste 6 Sur 0 -- -- 92
2019-03-07 08:00:00 4.2 5 Sur 6 Sudoeste 0 -- -- 91
2019-03-07 07:00:00 4.5 4 Sudoeste 8 Sudoeste 0 -- -- 91
2019-03-07 06:00:00 4.7 4 Sur 8 Sudoeste 0 -- -- 90
2019-03-07 05:00:00 5.4 6 Sudoeste 9 Sudoeste 0 -- -- 89
2019-03-07 04:00:00 6 5 Sur 10 Sudeste 0 -- -- 86
2019-03-07 03:00:00 6.9 4 Sudoeste 11 Sudoeste 0 -- -- 81
2019-03-07 02:00:00 8.1 5 Oeste 9 Oeste 0 -- -- 83
2019-03-07 01:00:00 9.6 5 Sudeste 8 Sur 0 -- -- 77
2019-03-07 00:00:00 9.4 3 Oeste 12 Oeste 0 -- -- 73
2019-03-06 23:00:00 9.7 3 Oeste 9 Oeste 0 -- -- 71
2019-03-06 22:00:00 10.4 4 Oeste 10 Oeste 0 -- -- 67
2019-03-06 21:00:00 11.1 0 Calma 17 Oeste 0 -- -- 68
2019-03-06 20:00:00 12.3 11 Oeste 19 Oeste 0 -- -- 74
2019-03-06 19:00:00 14.2 6 Oeste 20 Oeste 0 -- -- 57
2019-03-06 18:00:00 15.5 4 Oeste 23 Oeste 0 -- -- 59
2019-03-06 17:00:00 16.1 5 Noroeste 25 Oeste 0 -- -- 61
2019-03-06 16:00:00 15.6 5 Noroeste 49 Oeste 0.1 -- -- 77
2019-03-06 15:00:00 13.8 24 Oeste 55 Sudoeste 0.4 -- -- 83
2019-03-06 14:00:00 14.8 29 Oeste 57 Sudoeste 14.4 -- -- 89
2019-03-06 13:00:00 15.2 37 Sudoeste 58 Sudoeste 0.2 -- -- 81
2019-03-06 12:00:00 16.2 35 Sudoeste 55 Sudoeste 1.8 -- -- 77
2019-03-06 11:00:00 16.1 32 Sudoeste 56 Sudoeste 0.3 -- -- 74
2019-03-06 10:00:00 14.6 21 Sudoeste 49 Sudoeste 0.9 -- -- 86
2019-03-06 09:00:00 14.9 30 Sudoeste 44 Sudoeste 0 -- -- 78
2019-03-06 08:00:00 14.1 25 Sudoeste 40 Sudoeste 0 -- -- 81
2019-03-06 07:00:00 13.7 21 Sudoeste 31 Sudoeste 0 -- -- 82
2019-03-06 06:00:00 13.3 15 Sudoeste 25 Sudoeste 0 -- -- 84
2019-03-06 05:00:00 13.6 17 Sudoeste 27 Sudoeste 0 -- -- 84
2019-03-06 04:00:00 13.5 15 Sudoeste 26 Sudoeste 0 -- -- 90
2019-03-06 03:00:00 13.6 10 Sudoeste 18 Sudoeste 0 -- -- 91
2019-03-06 02:00:00 14 9 Oeste 14 Oeste 0 -- -- 91
2019-03-06 01:00:00 13.5 6 Sudoeste 12 Sudoeste 0 -- -- 90
2019-03-06 00:00:00 13.2 3 Oeste 6 Oeste 0 -- -- 90
2019-03-05 23:00:00 13 3 Sudoeste 5 Sur 0 -- -- 89
2019-03-05 22:00:00 13.9 3 Sudoeste 6 Oeste 0 -- -- 86
2019-03-05 21:00:00 15 0 Calma 6 Sudoeste 0 -- -- 85
2019-03-05 20:00:00 15.6 5 Sudoeste 7 Sudoeste 0 -- -- 80
2019-03-05 19:00:00 17.6 0 Calma 8 Oeste 0 -- -- 70
2019-03-05 18:00:00 18.3 5 Oeste 11 Sudoeste 0 -- -- 67
2019-03-05 17:00:00 17.8 6 Oeste 15 Oeste 0 -- -- 70
2019-03-05 16:00:00 17.3 10 Sudoeste 22 Sudoeste 0 -- -- 74
2019-03-05 15:00:00 17.5 13 Sudoeste 22 Sudoeste 0 -- -- 74
2019-03-05 14:00:00 17.3 10 Oeste 21 Oeste 0.1 -- -- 79
2019-03-05 13:00:00 16.5 8 Sudoeste 18 Sudoeste 0 -- -- 82
2019-03-05 12:00:00 15.7 7 Oeste 16 Sudoeste 0 -- -- 89
2019-03-05 11:00:00 15.6 10 Sudoeste 17 Sudoeste 0 -- -- 86
2019-03-05 10:00:00 15.2 7 Oeste 14 Oeste 0 -- -- 91
2019-03-05 09:00:00 14.6 5 Oeste 14 Oeste 0.1 -- -- 92
2019-03-05 08:00:00 14.6 6 Oeste 15 Oeste 0.3 -- -- 92
2019-03-05 07:00:00 14.7 9 Oeste 21 Sudoeste 0 -- -- 92
2019-03-05 06:00:00 14.7 10 Sudoeste 18 Sudoeste 0 -- -- 92
2019-03-05 05:00:00 14.8 11 Sudoeste 24 Sudoeste 0.1 -- -- 92
2019-03-05 04:00:00 14.8 7 Sudoeste 13 Sudoeste 3.2 -- -- 91
2019-03-05 03:00:00 14.7 2 Oeste 24 Sudoeste 0.7 -- -- 90
2019-03-05 02:00:00 14.4 10 Sudoeste 16 Sudoeste 0 -- -- 90
2019-03-05 01:00:00 14.3 10 Sudoeste 17 Sudoeste 0 -- -- 90
2019-03-05 00:00:00 14.5 11 Sudoeste 18 Sudoeste 0 -- -- 86
2019-03-04 23:00:00 14.9 10 Sudoeste 17 Sudoeste 0 -- -- 83
2019-03-04 22:00:00 14.8 10 Sudoeste 20 Oeste 0 -- -- 80
2019-03-04 21:00:00 15.5 10 Oeste 18 Oeste 0 -- -- 72
2019-03-04 20:00:00 15.6 12 Oeste 25 Oeste 0 -- -- 69
2019-03-04 19:00:00 16.4 13 Oeste 28 Oeste 0 -- -- 65
2019-03-04 18:00:00 17.7 5 Oeste 26 Oeste 0 -- -- 60
2019-03-04 17:00:00 17.7 12 Oeste 23 Oeste 0 -- -- 54
2019-03-04 16:00:00 19 9 Oeste 27 Oeste 0 -- -- 48
2019-03-04 15:00:00 19.1 10 Oeste 28 Oeste 0 -- -- 49
2019-03-04 14:00:00 17.5 13 Oeste 30 Oeste 0 -- -- 54
2019-03-04 13:00:00 16 14 Oeste 27 Oeste 0 -- -- 58
2019-03-04 12:00:00 14.2 11 Oeste 23 Oeste 0 -- -- 70
2019-03-04 11:00:00 14.4 14 Sudoeste 22 Sudoeste 0 -- -- 74
2019-03-04 10:00:00 12.8 11 Sudoeste 21 Sudoeste 0 -- -- 87
2019-03-04 09:00:00 11.2 7 Sur 14 Sur 0 -- -- 94
2019-03-04 08:00:00 11 8 Sudoeste 15 Sur 0 -- -- 94
2019-03-04 07:00:00 10.5 10 Sur 15 Sur 0 -- -- 94
2019-03-04 06:00:00 10.1 6 Sudoeste 18 Oeste 0 -- -- 94
2019-03-04 05:00:00 8.9 5 Oeste 14 Sur 0 -- -- 91
2019-03-04 04:00:00 7.6 5 Sur 9 Sudoeste 0 -- -- 91
2019-03-04 03:00:00 7.4 6 Sur 11 Sudoeste 0 -- -- 90
2019-03-04 02:00:00 9.5 7 Sudoeste 13 Sudoeste 0 -- -- 86
2019-03-04 01:00:00 12 9 Sudoeste 12 Sudoeste 0 -- -- 86
2019-03-04 00:00:00 10.7 8 Sur 10 Sur 0 -- -- 85
2019-03-03 23:00:00 11.9 7 Sudoeste 13 Sudoeste 0 -- -- 82
2019-03-03 22:00:00 13.6 9 Sudoeste 18 Sudoeste 0 -- -- 78
2019-03-03 21:00:00 15 11 Sudoeste 25 Oeste 0 -- -- 71
2019-03-03 20:00:00 17.3 13 Oeste 23 Oeste 0 -- -- 56
2019-03-03 19:00:00 20.9 0 Calma 14 Oeste 0 -- -- 40
2019-03-03 18:00:00 23.5 6 Sudoeste 12 Sudoeste 0 -- -- 31
2019-03-03 17:00:00 24.2 3 Oeste 13 Oeste 0 -- -- 29
2019-03-03 16:00:00 24 5 Oeste 11 Oeste 0 -- -- 30
2019-03-03 15:00:00 23.3 3 Nordeste 9 Nordeste 0 -- -- 32
2019-03-03 14:00:00 22.6 3 Nordeste 12 Nordeste 0 -- -- 37
2019-03-03 13:00:00 20.8 6 Nordeste 12 Nordeste 0 -- -- 42
2019-03-03 12:00:00 18.7 7 Nordeste 12 Nordeste 0 -- -- 51
2019-03-03 11:00:00 15 6 Norte 10 Nordeste 0 -- -- 66
2019-03-03 10:00:00 11 3 Norte 6 Norte 0 -- -- 81
2019-03-03 09:00:00 7.9 0 Calma 10 Este 0 -- -- 91
2019-03-03 08:00:00 6.1 5 Nordeste 8 Nordeste 0 -- -- 91
2019-03-03 07:00:00 5.1 2 Nordeste 5 Sudeste 0 -- -- 91
2019-03-03 06:00:00 5.9 2 Sur 6 Este 0 -- -- 91
2019-03-03 05:00:00 7.1 3 Este 5 Nordeste 0 -- -- 91
2019-03-03 04:00:00 6.4 4 Este 6 Sudeste 0 -- -- 90
2019-03-03 03:00:00 7.8 0 Calma 10 Sudeste 0 -- -- 90
2019-03-03 02:00:00 7.4 7 Sudeste 10 Sudeste 0 -- -- 89
2019-03-03 01:00:00 7.8 6 Sudeste 10 Sur 0 -- -- 87
2019-03-03 00:00:00 7.8 7 Sur 10 Sur 0 -- -- 84
2019-03-02 23:00:00 10.7 0 Calma 9 Oeste 0 -- -- 77
2019-03-02 22:00:00 10.2 6 Sur 7 Sur 0 -- -- 79
2019-03-02 21:00:00 11.8 4 Sur 8 Sudoeste 0 -- -- 66
2019-03-02 20:00:00 16.1 6 Sudoeste 8 Sudoeste 0 -- -- 54
2019-03-02 19:00:00 18.7 3 Sudoeste 4 Sudoeste 0 -- -- 47
2019-03-02 18:00:00 20.6 0 Calma 9 Norte 0 -- -- 43
2019-03-02 17:00:00 20.6 3 Norte 13 Norte 0 -- -- 44
2019-03-02 16:00:00 19.9 6 Norte 13 Oeste 0 -- -- 50
2019-03-02 15:00:00 19.5 5 Sudoeste 13 Oeste 0 -- -- 54
2019-03-02 14:00:00 18.7 3 Oeste 10 Sudoeste 0 -- -- 57
2019-03-02 13:00:00 17 5 Sur 12 Sur 0 -- -- 63
2019-03-02 12:00:00 15.8 4 Nordeste 11 Norte 0 -- -- 69
2019-03-02 11:00:00 13.9 9 Nordeste 13 Norte 0 -- -- 74
2019-03-02 10:00:00 11.7 6 Norte 13 Noroeste 0 -- -- 82
2019-03-02 09:00:00 8.1 6 Sur 8 Sudeste 0 -- -- 92
2019-03-02 08:00:00 6.2 4 Sudeste 5 Sudeste 0 -- -- 90
2019-03-02 07:00:00 7.5 0 Calma 6 Sudoeste 0 -- -- 90
2019-03-02 06:00:00 8.7 3 Sudoeste 10 Sudoeste 0 -- -- 89
2019-03-02 05:00:00 9.1 7 Sudoeste 11 Sudoeste 0 -- -- 90
2019-03-02 04:00:00 9.3 8 Sudoeste 12 Sudoeste 0 -- -- 91
2019-03-02 03:00:00 8.9 7 Sudoeste 11 Sudoeste 0 -- -- 92
2019-03-02 02:00:00 8 8 Sudoeste 12 Sudoeste 0 -- -- 91
2019-03-02 01:00:00 8.3 8 Sudoeste 12 Sur 0 -- -- 90
2019-03-02 00:00:00 8.3 8 Sudoeste 15 Sudoeste 0 -- -- 87
2019-03-01 23:00:00 8.6 9 Sudoeste 14 Sudoeste 0 -- -- 84
2019-03-01 22:00:00 10.5 8 Sudoeste 12 Sudoeste 0 -- -- 79
2019-03-01 21:00:00 11.4 5 Sudoeste 14 Oeste 0 -- -- 67
2019-03-01 20:00:00 14.3 11 Oeste 16 Sudoeste 0 -- -- 59
2019-03-01 19:00:00 16.8 6 Oeste 14 Sudoeste 0 -- -- 53
2019-03-01 18:00:00 18.2 6 Oeste 23 Oeste 0 -- -- 49
2019-03-01 17:00:00 19.4 3 Noroeste 21 Oeste 0 -- -- 48
2019-03-01 16:00:00 19.6 7 Oeste 24 Oeste 0 -- -- 52
2019-03-01 15:00:00 18.5 5 Oeste 20 Oeste 0 -- -- 57
2019-03-01 14:00:00 18.5 10 Oeste 25 Oeste 0 -- -- 58
2019-03-01 13:00:00 17.2 7 Oeste 15 Oeste 0 -- -- 60
2019-03-01 12:00:00 16 5 Sudoeste 10 Sudoeste 0 -- -- 60
2019-03-01 11:00:00 14.2 0 Calma 6 Sudeste 0 -- -- 65
2019-03-01 10:00:00 10.9 0 Calma 5 Este 0 -- -- 83
2019-03-01 09:00:00 7.2 0 Calma 3 Este 0 -- -- 86
2019-03-01 08:00:00 6.1 0 Calma 5 Sur 0 -- -- 87
2019-03-01 07:00:00 5.3 4 Sur 4 Sudeste 0 -- -- 87
2019-03-01 06:00:00 5 0 Calma 6 Sur 0 -- -- 87
2019-03-01 05:00:00 5.7 4 Sur 7 Sur 0 -- -- 85
2019-03-01 04:00:00 6.8 2 Sur 9 Sudoeste 0 -- -- 83
2019-03-01 03:00:00 6.6 7 Sudoeste 10 Sudoeste 0 -- -- 84
2019-03-01 02:00:00 6.7 6 Sur 10 Sudoeste 0 -- -- 83
2019-03-01 01:00:00 7.9 6 Sur 9 Sudoeste 0 -- -- 82
2019-03-01 00:00:00 8.3 8 Sur 13 Sudoeste 0 -- -- 82
2019-02-28 23:00:00 9.4 7 Sur 10 Sudoeste 0 -- -- 76
2019-02-28 22:00:00 10.8 9 Sur 12 Sudoeste 0 -- -- 67
2019-02-28 21:00:00 13 6 Sudoeste 12 Oeste 0 -- -- 54
2019-02-28 20:00:00 18.1 2 Noroeste 6 Oeste 0 -- -- 37
2019-02-28 19:00:00 20.5 2 Noroeste 8 Norte 0 -- -- 34
2019-02-28 18:00:00 22 3 Noroeste 10 Norte 0 -- -- 31
2019-02-28 17:00:00 22.7 6 Norte 12 Este 0 -- -- 31
2019-02-28 16:00:00 22.3 6 Norte 14 Nordeste 0 -- -- 31
2019-02-28 15:00:00 21.8 6 Nordeste 14 Este 0 -- -- 33
2019-02-28 14:00:00 20.8 7 Nordeste 15 Nordeste 0 -- -- 36
2019-02-28 13:00:00 19.6 9 Nordeste 17 Este 0 -- -- 38
2019-02-28 12:00:00 18 9 Nordeste 16 Nordeste 0 -- -- 42
2019-02-28 11:00:00 15.9 9 Este 15 Nordeste 0 -- -- 49
2019-02-28 10:00:00 11.6 10 Este 15 Este 0 -- -- 64
2019-02-28 09:00:00 6.2 4 Nordeste 6 Nordeste 0 -- -- 82
2019-02-28 08:00:00 3.6 2 Este 6 Este 0 -- -- 85
2019-02-28 07:00:00 3.8 4 Este 7 Este 0 -- -- 84
2019-02-28 06:00:00 4.9 3 Este 5 Este 0 -- -- 80
2019-02-28 05:00:00 5.8 5 Nordeste 7 Sur 0 -- -- 81
2019-02-28 04:00:00 5.2 5 Sur 7 Sudeste 0 -- -- 81
2019-02-28 03:00:00 5.5 6 Sudeste 9 Sudeste 0 -- -- 79
2019-02-28 02:00:00 5.9 7 Sur 8 Sudoeste 0 -- -- 78
2019-02-28 01:00:00 7.2 5 Sudoeste 10 Sur 0 -- -- 76
2019-02-28 00:00:00 7.5 9 Sudoeste 11 Sudoeste 0 -- -- 80
2019-02-27 23:00:00 6.8 7 Sur 11 Sur 0 -- -- 79
2019-02-27 22:00:00 8.4 6 Sur 14 Oeste 0 -- -- 67
2019-02-27 21:00:00 13.4 8 Oeste 15 Oeste 0 -- -- 54
2019-02-27 20:00:00 13.6 3 Sudoeste 6 Oeste 0 -- -- 43
2019-02-27 19:00:00 18.7 5 Noroeste 15 Norte 0 -- -- 32
2019-02-27 18:00:00 20.7 10 Norte 16 Norte 0 -- -- 28
2019-02-27 17:00:00 20.9 9 Norte 14 Norte 0 -- -- 28
2019-02-27 16:00:00 22.3 4 Noroeste 11 Oeste 0 -- -- 27
2019-02-27 15:00:00 21.5 4 Noroeste 16 Norte 0 -- -- 29
2019-02-27 14:00:00 20.1 5 Noroeste 12 Oeste 0 -- -- 31
2019-02-27 13:00:00 19.2 6 Oeste 12 Sudoeste 0 -- -- 35
2019-02-27 12:00:00 17.3 6 Oeste 10 Oeste 0 -- -- 41
2019-02-27 11:00:00 16 0 Calma 5 Oeste 0 -- -- 47
2019-02-27 10:00:00 12.4 0 Calma 4 Oeste 0 -- -- 59
2019-02-27 09:00:00 7.9 0 Calma 7 Este 0 -- -- 70
2019-02-27 08:00:00 4.9 6 Este 8 Este 0 -- -- 75
2019-02-27 07:00:00 3.4 4 Sudeste 9 Sudeste 0 -- -- 78
2019-02-27 06:00:00 3.7 6 Sur 7 Sur 0 -- -- 72
2019-02-27 05:00:00 4.3 0 Calma 8 Sudeste 0 -- -- 73
2019-02-27 04:00:00 5.3 5 Sur 8 Sudeste 0 -- -- 69
2019-02-27 03:00:00 5.4 3 Sur 9 Nordeste 0 -- -- 65
2019-02-27 02:00:00 6.4 4 Sur 5 Sur 0 -- -- 62
2019-02-27 01:00:00 8.2 2 Sudoeste 6 Oeste 0 -- -- 49
2019-02-27 00:00:00 12.5 2 Sudoeste 14 Sudeste 0 -- -- 38
2019-02-26 23:00:00 15.1 15 Sudeste 22 Sudeste 0 -- -- 35
2019-02-26 22:00:00 14.8 2 Noroeste 12 Sudeste 0 -- -- 37
2019-02-26 21:00:00 14.8 8 Sudeste 18 Sudeste 0 -- -- 38
2019-02-26 20:00:00 16.9 7 Sudeste 17 Sudeste 0 -- -- 39
2019-02-26 19:00:00 18.6 7 Sudoeste 14 Oeste 0 -- -- 36
2019-02-26 18:00:00 23.3 3 Sur 6 Oeste 0 -- -- 28
2019-02-26 17:00:00 23.3 0 Calma 8 Sudoeste 0 -- -- 27
2019-02-26 16:00:00 23.4 4 Oeste 12 Oeste 0 -- -- 27
2019-02-26 15:00:00 22.7 4 Oeste 15 Oeste 0 -- -- 28
2019-02-26 14:00:00 22.1 6 Oeste 16 Oeste 0 -- -- 29
2019-02-26 13:00:00 21.7 4 Oeste 9 Noroeste 0 -- -- 29
2019-02-26 12:00:00 19.8 4 Este 14 Este 0 -- -- 34
2019-02-26 11:00:00 16.6 9 Este 15 Sudeste 0 -- -- 46
2019-02-26 10:00:00 11.3 3 Norte 6 Este 0 -- -- 67
2019-02-26 09:00:00 5.9 3 Este 7 Este 0 -- -- 75
2019-02-26 08:00:00 3.7 2 Nordeste 9 Sudeste 0 -- -- 75
2019-02-26 07:00:00 1.4 6 Sudeste 11 Sur 0 -- -- 81
2019-02-26 06:00:00 2.6 5 Sudeste 8 Sudeste 0 -- -- 82
2019-02-26 05:00:00 3.1 0 Calma 6 Este 0 -- -- 76
2019-02-26 04:00:00 3.7 0 Calma 11 Este 0 -- -- 75
2019-02-26 03:00:00 4.9 3 Este 7 Sudeste 0 -- -- 75
2019-02-26 02:00:00 4.4 5 Sur 10 Sur 0 -- -- 76
2019-02-26 01:00:00 5.1 3 Sudeste 10 Sur 0 -- -- 72
2019-02-26 00:00:00 7.9 2 Oeste 8 Sur 0 -- -- 58
2019-02-25 23:00:00 11.1 4 Norte 6 Nordeste 0 -- -- 51
2019-02-25 22:00:00 11.1 3 Nordeste 12 Este 0 -- -- 52
2019-02-25 21:00:00 13.6 7 Este 14 Sudeste 0 -- -- 45
2019-02-25 20:00:00 15.9 6 Sudeste 10 Sudeste 0 -- -- 42
2019-02-25 19:00:00 17.5 6 Sur 17 Sudeste 0 -- -- 41
2019-02-25 18:00:00 22 6 Sudeste 14 Sudeste 0 -- -- 33
2019-02-25 17:00:00 22.3 9 Sur 21 Sur 0 -- -- 33
2019-02-25 16:00:00 22.8 3 Sur 17 Sudeste 0 -- -- 34
2019-02-25 15:00:00 22.1 5 Sudoeste 15 Oeste 0 -- -- 35
2019-02-25 14:00:00 21.5 9 Sudoeste 24 Sudeste 0 -- -- 36
2019-02-25 13:00:00 21.5 14 Sudeste 24 Sudeste 0 -- -- 35
2019-02-25 12:00:00 20.5 7 Sudeste 18 Este 0 -- -- 39
2019-02-25 11:00:00 18.4 11 Este 17 Nordeste 0 -- -- 46
2019-02-25 10:00:00 15.7 11 Este 23 Este 0 -- -- 57
2019-02-25 09:00:00 12.3 15 Este 22 Este 0 -- -- 66
2019-02-25 08:00:00 10.3 11 Este 19 Este 0 -- -- 67
2019-02-25 07:00:00 12.1 9 Este 16 Este 0 -- -- 58
2019-02-25 06:00:00 11.7 8 Este 14 Este 0 -- -- 55
2019-02-25 05:00:00 7.9 7 Este 10 Este 0 -- -- 66
2019-02-25 04:00:00 6.3 0 Calma 8 Este 0 -- -- 65
2019-02-25 03:00:00 7.9 3 Norte 10 Norte 0 -- -- 57
2019-02-25 02:00:00 8.7 5 Noroeste 9 Noroeste 0 -- -- 51
2019-02-25 01:00:00 12.9 8 Sudeste 18 Sudeste 0 -- -- 38
2019-02-25 00:00:00 13.9 11 Sudeste 27 Sudeste 0 -- -- 37
2019-02-24 23:00:00 15.3 17 Sudeste 26 Sudeste 0 -- -- 36
2019-02-24 22:00:00 15.7 18 Sudeste 30 Sur 0 -- -- 40
2019-02-24 21:00:00 13 10 Sudeste 16 Sur 0 -- -- 47
2019-02-24 20:00:00 14.8 12 Sur 25 Sudeste 0 -- -- 42
2019-02-24 19:00:00 19.3 16 Sudeste 25 Sudeste 0 -- -- 33
2019-02-24 18:00:00 22.3 5 Norte 15 Norte 0 -- -- 30
2019-02-24 17:00:00 22.7 9 Norte 17 Norte 0 -- -- 29
2019-02-24 16:00:00 22.1 9 Norte 16 Norte 0 -- -- 31
2019-02-24 15:00:00 21.8 5 Norte 13 Norte 0 -- -- 31
2019-02-24 14:00:00 21.5 2 Sur 8 Oeste 0 -- -- 33
2019-02-24 13:00:00 20.3 4 Sur 10 Este 0 -- -- 39
2019-02-24 12:00:00 16.6 2 Este 9 Norte 0 -- -- 49
2019-02-24 11:00:00 13.6 5 Nordeste 9 Nordeste 0 -- -- 60
2019-02-24 10:00:00 9.9 5 Norte 9 Norte 0 -- -- 72
2019-02-24 09:00:00 6.6 8 Nordeste 10 Este 0 -- -- 80
2019-02-24 08:00:00 4.1 5 Nordeste 9 Sur 0 -- -- 83
2019-02-24 07:00:00 5.7 3 Norte 9 Este 0 -- -- 78
2019-02-24 06:00:00 5.7 5 Este 8 Este 0 -- -- 77
2019-02-24 05:00:00 6.3 5 Nordeste 9 Nordeste 0 -- -- 74
2019-02-24 04:00:00 7 6 Sudeste 10 Sudeste 0 -- -- 75
2019-02-24 03:00:00 7.4 3 Este 5 Este 0 -- -- 72
2019-02-24 02:00:00 6.9 2 Sudeste 6 Sudeste 0 -- -- 73
2019-02-24 01:00:00 8.2 4 Sudeste 7 Este 0 -- -- 67
2019-02-24 00:00:00 8.7 0 Calma 5 Sudeste 0 -- -- 66
2019-02-23 23:00:00 9.5 4 Sudeste 7 Sudeste 0 -- -- 63
2019-02-23 22:00:00 10.6 5 Sudeste 9 Sudeste 0 -- -- 58
2019-02-23 21:00:00 11.1 7 Sudeste 8 Sudeste 0 -- -- 54
2019-02-23 20:00:00 15.6 4 Este 6 Este 0 -- -- 39
2019-02-23 19:00:00 19.2 4 Este 7 Este 0 -- -- 33
2019-02-23 18:00:00 21.1 6 Este 17 Nordeste 0 -- -- 31
2019-02-23 17:00:00 21.1 12 Nordeste 21 Este 0 -- -- 29
2019-02-23 16:00:00 21.8 12 Este 18 Este 0 -- -- 28
2019-02-23 15:00:00 21 12 Nordeste 19 Este 0 -- -- 32
2019-02-23 14:00:00 19.9 10 Este 19 Este 0 -- -- 35
2019-02-23 13:00:00 19 12 Este 20 Este 0 -- -- 38
2019-02-23 12:00:00 16.5 12 Nordeste 18 Nordeste 0 -- -- 50
2019-02-23 11:00:00 13 10 Nordeste 14 Nordeste 0 -- -- 64
2019-02-23 10:00:00 9 7 Norte 10 Norte 0 -- -- 80
2019-02-23 09:00:00 6.8 5 Nordeste 11 Este 0 -- -- 84
2019-02-23 08:00:00 6 5 Este 12 Este 0 -- -- 87
2019-02-23 07:00:00 5.2 4 Nordeste 8 Norte 0 -- -- 86
2019-02-23 06:00:00 5.2 3 Sudeste 9 Sudeste 0 -- -- 86
2019-02-23 05:00:00 5.7 6 Este 7 Este 0 -- -- 87
2019-02-23 04:00:00 5.5 2 Sudeste 6 Sur 0 -- -- 85
2019-02-23 03:00:00 6 6 Sur 8 Sur 0 -- -- 84
2019-02-23 02:00:00 6.6 6 Sur 10 Sur 0 -- -- 83
2019-02-23 01:00:00 7.5 8 Sur 10 Sur 0 -- -- 81
2019-02-23 00:00:00 8.4 8 Sudoeste 9 Sudoeste 0 -- -- 78
2019-02-22 23:00:00 8.8 7 Sur 8 Sur 0 -- -- 75
2019-02-22 22:00:00 10.2 6 Sur 8 Sudeste 0 -- -- 65
2019-02-22 21:00:00 12.2 0 Calma 10 Oeste 0 -- -- 54
2019-02-22 20:00:00 16.5 3 Noroeste 6 Noroeste 0 -- -- 41
2019-02-22 19:00:00 19.2 0 Calma 6 Noroeste 0 -- -- 37
2019-02-22 18:00:00 22.1 2 Noroeste 10 Sudoeste 0 -- -- 31
2019-02-22 17:00:00 22.1 6 Oeste 10 Oeste 0 -- -- 29
2019-02-22 16:00:00 21.9 4 Sudoeste 9 Oeste 0 -- -- 31
2019-02-22 15:00:00 21.5 2 Oeste 7 Nordeste 0 -- -- 33
2019-02-22 14:00:00 19.6 2 Norte 6 Este 0 -- -- 35
2019-02-22 13:00:00 17.7 3 Norte 7 Norte 0 -- -- 38
2019-02-22 12:00:00 16.8 2 Oeste 6 Este 0 -- -- 44
2019-02-22 11:00:00 14.5 4 Este 6 Nordeste 0 -- -- 60
2019-02-22 10:00:00 10.4 0 Calma 4 Oeste 0 -- -- 73
2019-02-22 09:00:00 5.6 0 Calma 3 Oeste 0 -- -- 85
2019-02-22 08:00:00 3.7 0 Calma 6 Este 0 -- -- 86
2019-02-22 07:00:00 4 0 Calma 6 Este 0 -- -- 87
2019-02-22 06:00:00 4.8 4 Este 8 Este 0 -- -- 88
2019-02-22 05:00:00 5 3 Sudeste 6 Este 0 -- -- 88
2019-02-22 04:00:00 5.2 2 Sur 5 Sur 0 -- -- 88
2019-02-22 03:00:00 5.3 2 Sur 5 Sudeste 0 -- -- 87
2019-02-22 02:00:00 5.5 3 Sur 6 Norte 0 -- -- 81
2019-02-22 01:00:00 8 3 Norte 7 Norte 0 -- -- 77
2019-02-22 00:00:00 9.4 3 Norte 9 Norte 0 -- -- 78
2019-02-21 23:00:00 9.8 4 Este 8 Este 0 -- -- 78
2019-02-21 22:00:00 12 0 Calma 6 Oeste 0 -- -- 69
2019-02-21 21:00:00 12.7 4 Oeste 11 Sur 0 -- -- 67
2019-02-21 20:00:00 12.8 7 Sudeste 11 Sudoeste 0 -- -- 66
2019-02-21 19:00:00 16.6 8 Sudoeste 15 Sudoeste 0 -- -- 52
2019-02-21 18:00:00 19.8 5 Oeste 10 Oeste 0 -- -- 39
2019-02-21 17:00:00 21 3 Sudoeste 9 Oeste 0 -- -- 36
2019-02-21 16:00:00 21.1 3 Noroeste 17 Oeste 0 -- -- 37
2019-02-21 15:00:00 20.5 4 Noroeste 13 Norte 0 -- -- 39
2019-02-21 14:00:00 19.9 2 Nordeste 10 Nordeste 0 -- -- 39
2019-02-21 13:00:00 18.6 0 Calma 11 Norte 0 -- -- 41
2019-02-21 12:00:00 16.9 4 Noroeste 9 Noroeste 0 -- -- 42
2019-02-21 11:00:00 15 4 Oeste 9 Oeste 0 -- -- 49
2019-02-21 10:00:00 11.3 2 Sudoeste 6 Sur 0 -- -- 74
2019-02-21 09:00:00 6 0 Calma 4 Sudeste 0 -- -- 82
2019-02-21 08:00:00 4.2 4 Sudeste 8 Sur 0 -- -- 87
2019-02-21 07:00:00 4.7 3 Sur 4 Sur 0 -- -- 87
2019-02-21 06:00:00 3.8 0 Calma 2 Sudoeste 0 -- -- 86
2019-02-21 05:00:00 4.1 0 Calma 4 Oeste 0 -- -- 84
2019-02-21 04:00:00 4.8 0 Calma 5 Nordeste 0 -- -- 79
2019-02-21 03:00:00 6.8 0 Calma 7 Norte 0 -- -- 75
2019-02-21 02:00:00 7.7 0 Calma 7 Norte 0 -- -- 71
2019-02-21 01:00:00 9.1 5 Norte 8 Norte 0 -- -- 71
2019-02-21 00:00:00 9.6 3 Noroeste 8 Oeste 0 -- -- 71
2019-02-20 23:00:00 10.9 4 Este 8 Sudeste 0 -- -- 68
2019-02-20 22:00:00 10.6 2 Sur 10 Sudoeste 0 -- -- 73
2019-02-20 21:00:00 12.6 4 Sur 9 Sudeste 0 -- -- 66
2019-02-20 20:00:00 14.2 3 Sudoeste 10 Oeste 0 -- -- 51
2019-02-20 19:00:00 17 6 Oeste 9 Sudoeste 0 -- -- 45
2019-02-20 18:00:00 18.8 4 Noroeste 10 Oeste 0 -- -- 41
2019-02-20 17:00:00 19.8 3 Oeste 11 Sudoeste 0 -- -- 40
2019-02-20 16:00:00 20.2 4 Oeste 11 Sudoeste 0 -- -- 40
2019-02-20 15:00:00 19 4 Oeste 10 Sudoeste 0 -- -- 42
2019-02-20 14:00:00 18.4 3 Noroeste 12 Noroeste 0 -- -- 45
2019-02-20 13:00:00 17.6 4 Oeste 15 Oeste 0 -- -- 51
2019-02-20 12:00:00 16.4 5 Oeste 9 Oeste 0 -- -- 54
2019-02-20 11:00:00 14.7 3 Sudeste 9 Este 0 -- -- 65
2019-02-20 10:00:00 10.7 0 Calma 6 Sur 0 -- -- 87
2019-02-20 09:00:00 6.2 3 Sur 5 Sur 0 -- -- 91
2019-02-20 08:00:00 6.3 0 Calma 6 Este 0 -- -- 91
2019-02-20 07:00:00 7 2 Norte 4 Este 0 -- -- 90
2019-02-20 06:00:00 7.1 0 Calma 7 Norte 0 -- -- 90
2019-02-20 05:00:00 7.8 2 Sudeste 5 Sudeste 0 -- -- 89
2019-02-20 04:00:00 7.6 4 Sudeste 9 Sur 0 -- -- 87
2019-02-20 03:00:00 8.3 5 Sur 7 Sudeste 0 -- -- 86
2019-02-20 02:00:00 9.1 6 Sur 9 Sur 0 -- -- 85
2019-02-20 01:00:00 9.1 6 Sudoeste 8 Sur 0 -- -- 84
2019-02-20 00:00:00 9.7 4 Sudoeste 8 Sudoeste 0 -- -- 81